createdAt,value
2022-12-22T00:00:43.025Z,13.00
2022-12-22T00:06:03.059Z,11.80
2022-12-22T00:11:25.684Z,13.85
2022-12-22T00:16:53.490Z,10.93
2022-12-22T00:22:13.365Z,11.35
2022-12-22T00:27:46.296Z,12.90
2022-12-22T00:33:06.159Z,14.13
2022-12-22T00:38:33.742Z,13.23
2022-12-22T00:43:53.512Z,12.88
2022-12-22T00:49:13.338Z,11.55
2022-12-22T00:54:33.416Z,11.20
2022-12-22T00:59:53.629Z,11.40
2022-12-22T01:05:13.303Z,10.88
2022-12-22T01:10:33.470Z,12.40
2022-12-22T01:15:53.393Z,12.20
2022-12-22T01:21:13.564Z,13.40
2022-12-22T01:26:33.564Z,13.25
2022-12-22T01:31:53.421Z,12.65
2022-12-22T01:37:13.220Z,13.05
2022-12-22T01:42:33.330Z,11.70
2022-12-22T01:47:53.436Z,11.23
2022-12-22T01:53:19.463Z,11.85
2022-12-22T01:58:45.466Z,11.25
2022-12-22T02:04:05.240Z,10.18
2022-12-22T02:09:39.881Z,8.48
2022-12-22T02:15:04.586Z,9.05
2022-12-22T02:20:55.958Z,8.82
2022-12-22T02:26:20.461Z,10.63
2022-12-22T02:31:41.062Z,10.65
2022-12-22T02:37:18.170Z,10.32
2022-12-22T02:42:55.143Z,10.73
2022-12-22T02:48:25.564Z,11.45
2022-12-22T02:53:46.014Z,9.90
2022-12-22T02:59:05.787Z,10.75
2022-12-22T03:04:25.870Z,11.57
2022-12-22T03:09:45.499Z,11.07
2022-12-22T03:15:05.614Z,10.48
2022-12-22T03:20:26.062Z,10.93
2022-12-22T03:25:46.011Z,9.65
2022-12-22T03:30:53.338Z,9.90
2022-12-22T03:35:54.819Z,8.73
2022-12-22T03:40:56.288Z,9.20
2022-12-22T03:46:29.632Z,9.43
2022-12-22T03:51:31.337Z,8.48
2022-12-22T03:56:32.890Z,10.27
2022-12-22T04:01:36.884Z,11.18
2022-12-22T04:06:38.488Z,9.45
2022-12-22T04:11:58.881Z,10.82
2022-12-22T04:17:00.439Z,9.68
2022-12-22T04:22:02.003Z,9.73
2022-12-22T04:27:03.556Z,9.65
2022-12-22T04:32:05.131Z,7.97
2022-12-22T04:37:16.550Z,9.43
2022-12-22T04:42:18.867Z,9.18
2022-12-22T04:47:20.390Z,8.73
2022-12-22T04:52:21.849Z,7.65
2022-12-22T04:57:23.374Z,7.65
2022-12-22T05:02:24.909Z,8.82
2022-12-22T05:07:26.454Z,7.82
2022-12-22T05:12:46.510Z,9.50
2022-12-22T05:17:47.975Z,10.52
2022-12-22T05:22:49.498Z,9.10
2022-12-22T05:27:50.994Z,8.23
2022-12-22T05:32:52.441Z,8.93
2022-12-22T05:37:53.916Z,8.40
2022-12-22T05:42:55.396Z,10.07
2022-12-22T05:47:56.889Z,8.18
2022-12-22T05:52:59.443Z,9.95
2022-12-22T05:58:01.896Z,9.77
2022-12-22T06:03:03.530Z,9.13
2022-12-22T06:08:05.261Z,8.68
2022-12-22T06:13:06.726Z,8.50
2022-12-22T06:18:08.184Z,9.80
2022-12-22T06:23:09.680Z,10.23
2022-12-22T06:28:11.142Z,6.50
2022-12-22T06:33:12.611Z,7.00
2022-12-22T06:38:14.090Z,6.20
2022-12-22T06:43:15.563Z,5.40
2022-12-22T06:48:17.068Z,6.10
2022-12-22T06:53:18.546Z,6.88
2022-12-22T06:58:20.034Z,7.70
2022-12-22T07:03:21.686Z,5.80
2022-12-22T07:08:23.241Z,6.20
2022-12-22T07:13:25.841Z,7.78
2022-12-22T07:18:28.700Z,6.68
2022-12-22T07:23:30.410Z,5.60
2022-12-22T07:28:35.960Z,6.95
2022-12-22T07:33:37.520Z,7.07
2022-12-22T07:38:41.317Z,6.95
2022-12-22T07:43:42.878Z,6.90
2022-12-22T07:49:02.728Z,6.38
2022-12-22T07:54:08.253Z,5.47
2022-12-22T07:59:09.749Z,4.95
2022-12-22T08:04:12.187Z,3.28
2022-12-22T08:09:15.176Z,4.68
2022-12-22T08:14:16.633Z,3.22
2022-12-22T08:19:18.115Z,4.82
2022-12-22T08:24:19.583Z,3.30
2022-12-22T08:29:23.685Z,3.40
2022-12-22T08:34:25.200Z,3.00
2022-12-22T08:39:27.649Z,3.63
2022-12-22T08:44:29.145Z,2.20
2022-12-22T08:49:30.606Z,3.75
2022-12-22T08:54:32.676Z,3.65
2022-12-22T08:59:34.134Z,2.92
2022-12-22T09:04:35.626Z,3.13
2022-12-22T09:09:37.165Z,2.60
2022-12-22T09:14:38.628Z,2.60
2022-12-22T09:19:40.130Z,3.40
2022-12-22T09:24:41.606Z,2.40
2022-12-22T09:29:43.086Z,2.78
2022-12-22T09:34:44.557Z,3.78
2022-12-22T09:39:46.242Z,2.50
2022-12-22T09:44:50.260Z,2.78
2022-12-22T09:49:51.763Z,3.08
2022-12-22T09:54:53.241Z,2.35
2022-12-22T09:59:54.707Z,2.40
2022-12-22T10:05:28.393Z,3.10
2022-12-22T10:10:30.858Z,2.97
2022-12-22T10:15:39.638Z,2.03
2022-12-22T10:20:41.938Z,2.35
2022-12-22T10:31:24.435Z,3.50
2022-12-22T10:36:30.645Z,3.47
2022-12-22T10:41:35.249Z,3.28
2022-12-22T10:46:48.175Z,3.92
2022-12-22T10:51:54.857Z,4.13
2022-12-22T10:57:19.295Z,4.07
2022-12-22T11:02:20.823Z,3.55
2022-12-22T11:07:22.410Z,3.45
2022-12-22T11:12:27.708Z,3.30
2022-12-22T11:17:41.592Z,2.85
2022-12-22T11:22:48.161Z,3.53
2022-12-22T11:28:01.008Z,4.60
2022-12-22T11:33:21.162Z,4.05
2022-12-22T11:38:35.349Z,4.38
2022-12-22T11:43:51.793Z,4.50
2022-12-22T11:49:14.208Z,3.85
2022-12-22T11:59:58.607Z,2.90
2022-12-22T12:05:24.997Z,3.42
2022-12-22T12:10:27.863Z,3.10
2022-12-22T12:15:38.020Z,2.22
2022-12-22T12:21:02.088Z,3.20
2022-12-22T12:26:32.095Z,2.67
2022-12-22T12:31:44.727Z,3.50
2022-12-22T12:37:03.626Z,2.58
2022-12-22T12:42:46.433Z,3.38
2022-12-22T12:47:47.903Z,4.13
2022-12-22T12:52:50.325Z,2.53
2022-12-22T12:57:52.583Z,3.22
2022-12-22T13:02:57.728Z,3.33
2022-12-22T13:08:19.553Z,3.03
2022-12-22T13:13:24.027Z,2.85
2022-12-22T13:18:25.355Z,2.60
2022-12-22T13:23:37.057Z,2.88
2022-12-22T13:28:54.814Z,3.47
2022-12-22T13:34:13.107Z,3.13
2022-12-22T13:39:14.859Z,3.22
2022-12-22T13:44:19.499Z,3.90
2022-12-22T13:50:06.557Z,2.60
2022-12-22T13:54:49.506Z,2.53
2022-12-22T13:59:51.064Z,3.22
2022-12-22T14:05:09.386Z,2.45
2022-12-22T14:10:10.866Z,2.50
2022-12-22T14:15:16.979Z,3.67
2022-12-22T14:20:24.152Z,3.17
2022-12-22T14:25:29.339Z,2.92
2022-12-22T14:30:38.860Z,3.05
2022-12-22T14:35:40.686Z,3.42
2022-12-22T14:40:42.806Z,3.63
2022-12-22T14:45:48.366Z,3.90
2022-12-22T14:50:49.927Z,3.30
2022-12-22T14:55:51.445Z,3.78
2022-12-22T15:01:12.899Z,3.15
2022-12-22T15:06:26.597Z,2.97
2022-12-22T15:11:29.254Z,2.50
2022-12-22T15:16:30.855Z,3.95
2022-12-22T15:21:32.339Z,3.00
2022-12-22T15:26:37.797Z,3.40
2022-12-22T15:31:39.650Z,4.13
2022-12-22T15:36:41.118Z,3.00
2022-12-22T15:41:43.331Z,3.63
2022-12-22T15:46:45.456Z,3.72
2022-12-22T15:51:48.800Z,3.50
2022-12-22T15:56:50.633Z,3.80
2022-12-22T16:01:58.398Z,3.22
2022-12-22T16:07:02.305Z,4.07
2022-12-22T16:12:11.415Z,2.95
2022-12-22T16:17:19.181Z,2.55
2022-12-22T16:22:23.199Z,3.55
2022-12-22T16:27:24.723Z,2.78
2022-12-22T16:32:31.975Z,3.67
2022-12-22T16:37:33.481Z,3.20
2022-12-22T16:47:54.327Z,2.85
2022-12-22T16:52:55.831Z,3.67
2022-12-22T16:57:57.332Z,2.83
2022-12-22T17:03:04.624Z,3.38
2022-12-22T17:08:06.978Z,3.30
2022-12-22T17:13:09.069Z,4.68
2022-12-22T17:18:18.717Z,3.13
2022-12-22T17:23:38.062Z,5.03
2022-12-22T17:28:39.569Z,3.95
2022-12-22T17:33:41.033Z,3.45
2022-12-22T17:38:42.507Z,3.22
2022-12-22T17:43:44.160Z,2.70
2022-12-22T17:48:45.756Z,2.92
2022-12-22T17:53:47.327Z,3.00
2022-12-22T17:58:49.105Z,3.22
2022-12-22T18:03:50.705Z,3.33
2022-12-22T18:08:53.054Z,3.08
2022-12-22T18:13:54.598Z,2.83
2022-12-22T18:18:56.102Z,2.47
2022-12-22T18:23:57.589Z,2.75
2022-12-22T18:28:59.752Z,2.42
2022-12-22T18:34:01.242Z,3.35
2022-12-22T18:39:02.810Z,2.65
2022-12-22T18:44:04.339Z,2.60
2022-12-22T18:49:06.234Z,2.50
2022-12-22T18:54:27.206Z,2.90
2022-12-22T18:59:28.883Z,3.55
2022-12-22T19:04:30.373Z,3.15
2022-12-22T19:09:31.851Z,3.33
2022-12-22T19:14:33.339Z,2.55
2022-12-22T19:19:34.960Z,3.50
2022-12-22T19:24:36.446Z,4.78
2022-12-22T19:29:37.917Z,4.40
2022-12-22T19:34:39.419Z,4.35
2022-12-22T19:39:40.891Z,4.82
2022-12-22T19:44:42.674Z,5.40
2022-12-22T19:49:44.140Z,6.40
2022-12-22T19:54:45.646Z,7.60
2022-12-22T19:59:48.639Z,9.23
2022-12-22T20:04:50.247Z,10.57
2022-12-22T20:09:51.859Z,9.05
2022-12-22T20:14:53.342Z,10.70
2022-12-22T20:19:54.820Z,9.43
2022-12-22T20:24:56.319Z,9.13
2022-12-22T20:29:57.791Z,11.00
2022-12-22T20:34:59.262Z,10.20
2022-12-22T20:40:00.725Z,12.40
2022-12-22T20:45:04.643Z,12.43
2022-12-22T20:50:29.417Z,10.75
2022-12-22T20:55:30.948Z,11.88
2022-12-22T21:00:32.425Z,13.07
2022-12-22T21:05:33.899Z,13.13
2022-12-22T21:10:35.371Z,11.60
2022-12-22T21:15:36.984Z,12.57
2022-12-22T21:20:38.452Z,12.02
2022-12-22T21:25:46.241Z,11.75
2022-12-22T21:30:48.173Z,11.50
2022-12-22T21:35:49.737Z,10.32
2022-12-22T21:40:51.222Z,9.52
2022-12-22T21:45:52.954Z,5.63
2022-12-22T21:50:54.507Z,1.70
2022-12-22T21:55:55.972Z,6.65
2022-12-22T22:00:57.569Z,6.72
2022-12-22T22:05:59.095Z,3.80
2022-12-22T22:11:00.611Z,5.63
2022-12-22T22:16:02.160Z,7.07
2022-12-22T22:21:03.716Z,7.75
2022-12-22T22:26:05.352Z,7.75
2022-12-22T22:31:10.595Z,10.98
2022-12-22T22:36:12.125Z,10.93
2022-12-22T22:41:13.613Z,10.73
2022-12-22T22:46:15.136Z,9.63
2022-12-22T22:51:16.676Z,10.73
2022-12-22T22:56:18.138Z,10.00
2022-12-22T23:01:19.644Z,12.25
2022-12-22T23:06:21.147Z,13.48
2022-12-22T23:11:22.659Z,14.23
2022-12-22T23:16:24.933Z,13.63
2022-12-22T23:21:26.603Z,14.63
2022-12-22T23:26:28.094Z,16.13
2022-12-22T23:31:29.983Z,14.95
2022-12-22T23:36:31.801Z,15.50
2022-12-22T23:41:33.270Z,16.13
2022-12-22T23:46:34.824Z,14.55
2022-12-22T23:51:36.317Z,14.02
2022-12-22T23:56:37.797Z,13.38
